createdAt,value
2022-07-27T00:00:52.437Z,4.17
2022-07-27T00:03:19.076Z,4.40
2022-07-27T00:05:45.816Z,4.50
2022-07-27T00:08:12.439Z,4.27
2022-07-27T00:10:38.997Z,4.40
2022-07-27T00:13:06.398Z,3.90
2022-07-27T00:15:35.993Z,3.80
2022-07-27T00:18:02.537Z,4.43
2022-07-27T00:20:29.775Z,3.97
2022-07-27T00:22:56.528Z,3.90
2022-07-27T00:25:23.459Z,5.07
2022-07-27T00:27:50.495Z,3.93
2022-07-27T00:30:17.206Z,4.70
2022-07-27T00:32:43.885Z,4.50
2022-07-27T00:35:11.134Z,4.23
2022-07-27T00:37:38.073Z,4.70
2022-07-27T00:40:05.506Z,4.10
2022-07-27T00:42:32.278Z,4.33
2022-07-27T00:44:59.167Z,4.70
2022-07-27T00:47:26.153Z,4.53
2022-07-27T00:49:53.367Z,4.43
2022-07-27T00:52:21.460Z,4.60
2022-07-27T00:54:47.984Z,4.70
2022-07-27T00:57:15.504Z,3.67
2022-07-27T00:59:42.247Z,4.97
2022-07-27T01:02:11.979Z,4.60
2022-07-27T01:04:39.504Z,5.10
2022-07-27T01:07:06.885Z,4.87
2022-07-27T01:09:52.407Z,5.60
2022-07-27T01:12:20.950Z,4.20
2022-07-27T01:14:48.849Z,5.20
2022-07-27T01:17:16.139Z,5.67
2022-07-27T01:19:42.777Z,5.47
2022-07-27T01:22:09.653Z,5.37
2022-07-27T01:24:36.563Z,5.43
2022-07-27T01:27:04.586Z,6.50
2022-07-27T01:29:32.295Z,5.03
2022-07-27T01:31:59.186Z,5.10
2022-07-27T01:34:25.919Z,4.97
2022-07-27T01:36:52.489Z,4.30
2022-07-27T01:39:20.084Z,4.57
2022-07-27T01:41:47.323Z,4.10
2022-07-27T01:44:14.273Z,4.73
2022-07-27T01:46:40.869Z,5.97
2022-07-27T01:49:07.732Z,4.90
2022-07-27T01:51:34.429Z,5.80
2022-07-27T01:54:01.049Z,4.77
2022-07-27T01:56:27.699Z,4.90
2022-07-27T01:58:55.349Z,4.47
2022-07-27T02:01:22.113Z,4.80
2022-07-27T02:03:48.707Z,4.80
2022-07-27T02:06:15.472Z,4.47
2022-07-27T02:08:42.029Z,5.10
2022-07-27T02:11:27.388Z,5.50
2022-07-27T02:13:53.867Z,6.70
2022-07-27T02:16:20.631Z,7.70
2022-07-27T02:18:48.566Z,7.27
2022-07-27T02:21:15.555Z,6.00
2022-07-27T02:23:44.425Z,5.77
2022-07-27T02:26:11.090Z,4.87
2022-07-27T02:28:37.642Z,4.20
2022-07-27T02:31:04.427Z,4.63
2022-07-27T02:33:31.134Z,4.33
2022-07-27T02:35:57.697Z,5.20
2022-07-27T02:38:24.259Z,5.00
2022-07-27T02:40:50.884Z,4.63
2022-07-27T02:43:17.403Z,4.70
2022-07-27T02:45:44.063Z,4.73
2022-07-27T02:48:13.157Z,4.80
2022-07-27T02:50:39.751Z,4.20
2022-07-27T02:53:06.350Z,4.17
2022-07-27T02:55:32.847Z,5.10
2022-07-27T02:57:59.420Z,5.00
2022-07-27T03:00:25.911Z,4.20
2022-07-27T03:02:52.664Z,4.27
2022-07-27T03:05:20.210Z,4.60
2022-07-27T03:07:46.680Z,4.30
2022-07-27T03:10:13.271Z,5.10
2022-07-27T03:12:39.955Z,4.73
2022-07-27T03:15:06.946Z,5.03
2022-07-27T03:17:33.471Z,4.87
2022-07-27T03:20:00.039Z,4.37
2022-07-27T03:22:30.555Z,3.50
2022-07-27T03:24:57.500Z,4.47
2022-07-27T03:27:24.053Z,4.77
2022-07-27T03:29:50.523Z,4.50
2022-07-27T03:32:17.224Z,4.50
2022-07-27T03:34:43.791Z,5.10
2022-07-27T03:37:10.277Z,3.80
2022-07-27T03:39:37.160Z,4.50
2022-07-27T03:42:04.091Z,4.23
2022-07-27T03:44:30.816Z,5.03
2022-07-27T03:46:57.389Z,6.00
2022-07-27T03:49:23.955Z,4.20
2022-07-27T03:51:50.632Z,4.10
2022-07-27T03:54:17.907Z,5.43
2022-07-27T03:56:45.362Z,4.37
2022-07-27T03:59:12.611Z,3.73
2022-07-27T04:01:39.573Z,5.23
2022-07-27T04:04:06.065Z,4.50
2022-07-27T04:06:32.637Z,4.50
2022-07-27T04:09:08.719Z,4.60
2022-07-27T04:11:37.690Z,4.33
2022-07-27T04:14:12.658Z,5.00
2022-07-27T04:16:39.988Z,5.23
2022-07-27T04:19:06.589Z,4.40
2022-07-27T04:21:34.637Z,3.67
2022-07-27T04:24:04.366Z,4.40
2022-07-27T04:26:30.847Z,6.20
2022-07-27T04:28:57.368Z,4.60
2022-07-27T04:31:23.984Z,4.50
2022-07-27T04:33:50.734Z,4.60
2022-07-27T04:36:17.238Z,4.83
2022-07-27T04:38:43.764Z,5.00
2022-07-27T04:41:10.371Z,4.97
2022-07-27T04:43:37.163Z,4.70
2022-07-27T04:46:04.673Z,5.67
2022-07-27T04:48:35.158Z,5.20
2022-07-27T04:51:02.362Z,5.70
2022-07-27T04:53:28.896Z,5.07
2022-07-27T04:55:55.472Z,5.57
2022-07-27T04:58:22.340Z,4.47
2022-07-27T05:00:48.906Z,4.30
2022-07-27T05:03:15.556Z,4.80
2022-07-27T05:05:49.917Z,4.43
2022-07-27T05:08:16.859Z,4.67
2022-07-27T05:10:43.377Z,5.40
2022-07-27T05:13:09.968Z,5.20
2022-07-27T05:15:53.926Z,5.83
2022-07-27T05:18:22.217Z,4.57
2022-07-27T05:20:48.764Z,4.50
2022-07-27T05:23:16.847Z,3.83
2022-07-27T05:25:43.384Z,4.20
2022-07-27T05:28:12.066Z,4.63
2022-07-27T05:30:38.590Z,4.67
2022-07-27T05:33:05.300Z,5.80
2022-07-27T05:35:32.164Z,4.33
2022-07-27T05:37:58.682Z,4.33
2022-07-27T05:40:26.480Z,3.87
2022-07-27T05:42:53.212Z,4.37
2022-07-27T05:45:19.861Z,4.67
2022-07-27T05:47:46.697Z,5.17
2022-07-27T05:50:13.455Z,4.67
2022-07-27T05:52:40.266Z,4.60
2022-07-27T05:55:07.136Z,5.80
2022-07-27T05:57:33.957Z,5.10
2022-07-27T06:00:01.519Z,4.50
2022-07-27T06:02:30.175Z,4.97
2022-07-27T06:04:56.698Z,4.10
2022-07-27T06:07:41.872Z,4.50
2022-07-27T06:10:09.466Z,4.80
2022-07-27T06:12:43.696Z,4.77
2022-07-27T06:15:11.998Z,4.70
2022-07-27T06:17:38.512Z,4.83
2022-07-27T06:20:07.618Z,5.50
2022-07-27T06:22:44.373Z,5.03
2022-07-27T06:25:10.913Z,5.00
2022-07-27T06:27:38.009Z,4.03
2022-07-27T06:30:05.975Z,4.60
2022-07-27T06:32:32.546Z,5.63
2022-07-27T06:35:04.084Z,4.60
2022-07-27T06:37:31.285Z,4.17
2022-07-27T06:39:59.205Z,4.20
2022-07-27T06:42:26.196Z,4.77
2022-07-27T06:44:53.058Z,4.30
2022-07-27T06:47:19.918Z,4.70
2022-07-27T06:49:46.489Z,4.60
2022-07-27T06:52:12.973Z,4.17
2022-07-27T06:54:39.597Z,4.20
2022-07-27T06:57:06.272Z,5.70
2022-07-27T06:59:42.851Z,4.87
2022-07-27T07:02:10.190Z,4.70
2022-07-27T07:04:36.788Z,5.80
2022-07-27T07:07:07.016Z,4.87
2022-07-27T07:09:34.045Z,4.80
2022-07-27T07:12:00.569Z,4.20
2022-07-27T07:14:27.230Z,4.80
2022-07-27T07:16:53.936Z,4.57
2022-07-27T07:19:20.539Z,4.00
2022-07-27T07:21:47.165Z,5.00
2022-07-27T07:24:13.964Z,3.87
2022-07-27T07:26:40.973Z,4.30
2022-07-27T07:29:07.866Z,5.20
2022-07-27T07:31:34.682Z,4.83
2022-07-27T07:34:01.281Z,4.13
2022-07-27T07:36:27.943Z,3.90
2022-07-27T07:38:55.923Z,3.90
2022-07-27T07:41:25.633Z,4.67
2022-07-27T07:43:52.304Z,3.90
2022-07-27T07:46:19.150Z,4.60
2022-07-27T07:48:45.795Z,4.57
2022-07-27T07:51:12.436Z,4.90
2022-07-27T07:53:41.699Z,4.73
2022-07-27T07:56:08.863Z,4.73
2022-07-27T07:58:36.075Z,4.50
2022-07-27T08:01:02.764Z,4.43
2022-07-27T08:03:29.704Z,4.73
2022-07-27T08:05:56.336Z,4.17
2022-07-27T08:08:24.705Z,4.70
2022-07-27T08:10:51.917Z,4.70
2022-07-27T08:13:22.212Z,5.17
2022-07-27T08:15:50.088Z,4.70
2022-07-27T08:18:16.720Z,5.20
2022-07-27T08:20:43.416Z,5.00
2022-07-27T08:23:12.600Z,5.23
2022-07-27T08:25:39.602Z,5.80
2022-07-27T08:28:07.595Z,5.07
2022-07-27T08:30:34.639Z,5.67
2022-07-27T08:33:03.615Z,4.73
2022-07-27T08:35:32.135Z,4.70
2022-07-27T08:37:59.231Z,5.20
2022-07-27T08:40:44.455Z,5.00
2022-07-27T08:43:18.967Z,5.10
2022-07-27T08:45:54.849Z,4.43
2022-07-27T08:48:23.059Z,5.10
2022-07-27T08:50:49.594Z,4.70
2022-07-27T08:53:16.836Z,5.00
2022-07-27T08:55:45.434Z,6.37
2022-07-27T08:58:13.746Z,4.80
2022-07-27T09:00:52.544Z,5.20
2022-07-27T09:03:22.569Z,5.77
2022-07-27T09:05:52.328Z,5.70
2022-07-27T09:08:30.475Z,4.67
2022-07-27T09:10:59.159Z,4.93
2022-07-27T09:13:28.814Z,5.67
2022-07-27T09:16:17.986Z,5.10
2022-07-27T09:18:44.589Z,7.07
2022-07-27T09:21:19.931Z,5.57
2022-07-27T09:23:50.577Z,5.43
2022-07-27T09:26:32.888Z,5.63
2022-07-27T09:29:02.350Z,4.57
2022-07-27T09:31:29.198Z,5.30
2022-07-27T09:33:58.457Z,4.50
2022-07-27T09:36:26.798Z,5.23
2022-07-27T09:39:08.423Z,4.80
2022-07-27T09:41:47.618Z,5.40
2022-07-27T09:44:32.558Z,4.70
2022-07-27T09:46:59.920Z,5.13
2022-07-27T09:49:34.834Z,4.27
2022-07-27T09:52:03.287Z,5.10
2022-07-27T09:54:44.346Z,4.97
2022-07-27T09:57:11.538Z,5.20
2022-07-27T09:59:38.045Z,5.20
2022-07-27T10:02:05.448Z,5.40
2022-07-27T10:04:35.278Z,4.87
2022-07-27T10:07:04.581Z,5.20
2022-07-27T10:09:35.014Z,5.33
2022-07-27T10:12:03.967Z,5.03
2022-07-27T10:14:30.766Z,4.70
2022-07-27T10:16:57.737Z,4.87
2022-07-27T10:19:41.917Z,4.70
2022-07-27T10:22:08.443Z,4.97
2022-07-27T10:24:37.115Z,5.03
2022-07-27T10:27:30.812Z,4.83
2022-07-27T10:29:58.201Z,5.10
2022-07-27T10:32:33.242Z,4.77
2022-07-27T10:35:01.302Z,4.33
2022-07-27T10:37:29.668Z,5.47
2022-07-27T10:40:18.892Z,5.00
2022-07-27T10:42:52.006Z,6.00
2022-07-27T10:45:20.957Z,5.53
2022-07-27T10:47:52.440Z,5.03
2022-07-27T10:50:25.006Z,6.20
2022-07-27T10:52:59.787Z,6.10
2022-07-27T10:55:38.330Z,5.10
2022-07-27T10:58:10.864Z,4.87
2022-07-27T11:00:54.223Z,4.70
2022-07-27T11:03:30.835Z,5.20
2022-07-27T11:06:21.746Z,5.47
2022-07-27T11:09:21.383Z,5.03
2022-07-27T11:11:39.532Z,4.87
2022-07-27T11:14:06.169Z,5.23
2022-07-27T11:16:39.654Z,5.40
2022-07-27T11:19:17.141Z,6.10
2022-07-27T11:21:46.865Z,5.40
2022-07-27T11:24:19.315Z,5.47
2022-07-27T11:26:51.252Z,5.77
2022-07-27T11:29:19.736Z,5.30
2022-07-27T11:31:57.761Z,4.67
2022-07-27T11:34:32.585Z,5.50
2022-07-27T11:37:02.071Z,4.90
2022-07-27T11:42:20.843Z,5.10
2022-07-27T11:44:47.955Z,5.37
2022-07-27T11:47:18.885Z,5.00
2022-07-27T11:49:45.595Z,6.17
2022-07-27T11:52:12.665Z,5.43
2022-07-27T11:54:41.646Z,5.10
2022-07-27T11:57:13.837Z,5.10
2022-07-27T11:59:42.086Z,5.27
2022-07-27T12:02:10.617Z,5.30
2022-07-27T12:04:39.418Z,4.80
2022-07-27T12:07:14.035Z,4.90
2022-07-27T12:09:51.025Z,4.73
2022-07-27T12:12:28.245Z,4.70
2022-07-27T12:14:57.272Z,4.63
2022-07-27T12:17:34.737Z,5.00
2022-07-27T12:20:05.902Z,4.63
2022-07-27T12:22:53.277Z,4.37
2022-07-27T12:25:21.175Z,5.97
2022-07-27T12:28:04.666Z,5.50
2022-07-27T12:30:31.294Z,5.47
2022-07-27T12:32:58.368Z,4.20
2022-07-27T12:35:31.556Z,4.93
2022-07-27T12:38:06.220Z,4.00
2022-07-27T12:40:33.837Z,5.07
2022-07-27T12:43:06.625Z,4.70
2022-07-27T12:45:36.354Z,5.20
2022-07-27T12:48:14.896Z,4.90
2022-07-27T12:50:42.898Z,5.07
2022-07-27T12:53:10.757Z,5.13
2022-07-27T12:55:37.847Z,6.20
2022-07-27T12:58:04.572Z,5.03
2022-07-27T13:00:34.038Z,5.20
2022-07-27T13:03:02.137Z,5.40
2022-07-27T13:05:29.178Z,5.43
2022-07-27T13:07:56.027Z,5.27
2022-07-27T13:10:22.589Z,4.73
2022-07-27T13:12:49.944Z,5.53
2022-07-27T13:15:16.941Z,5.50
2022-07-27T13:17:44.572Z,5.97
2022-07-27T13:20:13.505Z,5.23
2022-07-27T13:22:41.210Z,5.27
2022-07-27T13:25:15.911Z,5.37
2022-07-27T13:27:44.265Z,5.80
2022-07-27T13:30:12.022Z,5.10
2022-07-27T13:32:39.055Z,5.53
2022-07-27T13:35:07.587Z,5.47
2022-07-27T13:37:34.126Z,6.10
2022-07-27T13:40:00.672Z,6.23
2022-07-27T13:42:27.215Z,5.60
2022-07-27T13:45:08.502Z,6.00
2022-07-27T13:47:36.733Z,6.07
2022-07-27T13:50:04.264Z,5.80
2022-07-27T13:52:30.925Z,5.10
2022-07-27T13:54:57.485Z,6.30
2022-07-27T13:57:24.112Z,5.80
2022-07-27T13:59:50.754Z,6.00
2022-07-27T14:02:17.468Z,5.00
2022-07-27T14:04:49.673Z,5.40
2022-07-27T14:07:16.748Z,5.93
2022-07-27T14:10:02.024Z,5.20
2022-07-27T14:12:28.737Z,5.63
2022-07-27T14:14:55.458Z,5.97
2022-07-27T14:17:22.075Z,5.80
2022-07-27T14:19:49.294Z,4.90
2022-07-27T14:22:15.864Z,4.93
2022-07-27T14:24:42.875Z,5.53
2022-07-27T14:27:10.101Z,5.10
2022-07-27T14:29:36.714Z,5.10
2022-07-27T14:32:03.474Z,5.50
2022-07-27T14:34:30.096Z,5.57
2022-07-27T14:36:56.637Z,5.47
2022-07-27T14:39:23.303Z,5.40
2022-07-27T14:41:49.894Z,6.70
2022-07-27T14:44:18.702Z,5.30
2022-07-27T14:46:46.371Z,5.57
2022-07-27T14:49:14.589Z,5.63
2022-07-27T14:51:41.284Z,5.27
2022-07-27T14:54:08.047Z,4.77
2022-07-27T14:56:36.459Z,5.30
2022-07-27T14:59:04.460Z,5.10
2022-07-27T15:01:31.448Z,5.63
2022-07-27T15:03:58.076Z,5.87
2022-07-27T15:06:24.641Z,5.73
2022-07-27T15:08:51.171Z,5.23
2022-07-27T15:11:17.693Z,5.40
2022-07-27T15:13:44.255Z,5.43
2022-07-27T15:16:12.034Z,6.30
2022-07-27T15:18:39.243Z,5.40
2022-07-27T15:21:13.336Z,5.80
2022-07-27T15:23:42.096Z,6.00
2022-07-27T15:26:08.682Z,5.57
2022-07-27T15:28:36.367Z,5.27
2022-07-27T15:31:03.078Z,5.83
2022-07-27T15:33:29.715Z,6.97
2022-07-27T15:35:56.513Z,5.53
2022-07-27T15:38:22.984Z,5.57
2022-07-27T15:40:49.863Z,6.63
2022-07-27T15:43:17.884Z,6.10
2022-07-27T15:45:48.070Z,5.27
2022-07-27T15:48:16.187Z,5.77
2022-07-27T15:50:45.485Z,5.17
2022-07-27T15:53:12.311Z,4.73
2022-07-27T15:55:39.346Z,6.20
2022-07-27T15:58:07.902Z,5.87
2022-07-27T16:00:39.525Z,7.07
2022-07-27T16:03:08.367Z,4.60
2022-07-27T16:05:35.104Z,4.80
2022-07-27T16:08:01.673Z,5.50
2022-07-27T16:10:29.881Z,6.60
2022-07-27T16:12:57.510Z,5.30
2022-07-27T16:15:42.749Z,5.10
2022-07-27T16:18:09.963Z,4.80
2022-07-27T16:20:36.796Z,4.50
2022-07-27T16:23:03.624Z,5.20
2022-07-27T16:26:07.458Z,5.93
2022-07-27T16:28:38.967Z,6.73
2022-07-27T16:31:07.450Z,7.60
2022-07-27T16:33:34.272Z,6.97
2022-07-27T16:36:00.782Z,6.80
2022-07-27T16:38:27.584Z,6.60
2022-07-27T16:40:54.188Z,5.17
2022-07-27T16:43:20.724Z,5.63
2022-07-27T16:45:47.206Z,5.00
2022-07-27T16:48:13.704Z,6.00
2022-07-27T16:50:40.542Z,7.73
2022-07-27T16:53:07.359Z,5.63
2022-07-27T16:55:33.899Z,6.10
2022-07-27T16:58:00.366Z,6.03
2022-07-27T17:00:26.943Z,6.30
2022-07-27T17:02:53.432Z,5.27
2022-07-27T17:05:20.847Z,5.33
2022-07-27T17:07:50.273Z,5.10
2022-07-27T17:10:27.078Z,6.00
2022-07-27T17:12:54.252Z,6.07
2022-07-27T17:15:22.458Z,5.50
2022-07-27T17:17:48.954Z,5.20
2022-07-27T17:20:15.576Z,5.87
2022-07-27T17:22:54.412Z,5.60
2022-07-27T17:25:21.766Z,4.87
2022-07-27T17:27:48.652Z,5.67
2022-07-27T17:30:16.186Z,5.53
2022-07-27T17:32:43.032Z,5.30
2022-07-27T17:35:10.271Z,5.70
2022-07-27T17:38:03.555Z,6.20
2022-07-27T17:40:23.477Z,5.67
2022-07-27T17:42:52.119Z,5.50
2022-07-27T17:45:18.624Z,4.80
2022-07-27T17:47:45.485Z,4.93
2022-07-27T17:50:12.170Z,4.70
2022-07-27T17:52:38.850Z,4.47
2022-07-27T17:55:06.055Z,6.03
2022-07-27T17:57:32.587Z,5.60
2022-07-27T17:59:59.063Z,5.40
2022-07-27T18:02:25.972Z,5.67
2022-07-27T18:04:52.564Z,5.63
2022-07-27T18:07:19.387Z,5.97
2022-07-27T18:09:45.933Z,6.10
2022-07-27T18:12:12.513Z,5.80
2022-07-27T18:14:59.124Z,5.90
2022-07-27T18:17:25.605Z,6.50
2022-07-27T18:19:52.158Z,5.60
2022-07-27T18:22:19.150Z,6.10
2022-07-27T18:24:45.622Z,6.10
2022-07-27T18:27:12.198Z,6.40
2022-07-27T18:29:39.139Z,6.70
2022-07-27T18:32:05.722Z,7.53
2022-07-27T18:34:32.579Z,6.50
2022-07-27T18:36:59.232Z,6.90
2022-07-27T18:39:33.961Z,6.80
2022-07-27T18:42:03.779Z,5.93
2022-07-27T18:44:36.696Z,6.53
2022-07-27T18:47:05.410Z,6.00
2022-07-27T18:49:32.170Z,6.80
2022-07-27T18:51:58.826Z,6.17
2022-07-27T18:54:25.489Z,5.50
2022-07-27T18:56:52.117Z,5.90
2022-07-27T18:59:18.773Z,5.20
2022-07-27T19:01:45.492Z,6.10
2022-07-27T19:04:12.492Z,6.33
2022-07-27T19:06:42.347Z,6.13
2022-07-27T19:09:10.878Z,6.73
2022-07-27T19:11:37.653Z,7.40
2022-07-27T19:14:04.295Z,5.83
2022-07-27T19:16:31.158Z,6.87
2022-07-27T19:18:58.749Z,6.70
2022-07-27T19:21:25.462Z,6.70
2022-07-27T19:23:51.959Z,6.67
2022-07-27T19:26:18.578Z,8.23
2022-07-27T19:28:45.231Z,8.03
2022-07-27T19:31:22.722Z,9.00
2022-07-27T19:33:53.310Z,10.57
2022-07-27T19:36:20.561Z,10.07
2022-07-27T19:38:47.052Z,8.50
2022-07-27T19:41:13.655Z,6.77
2022-07-27T19:43:40.194Z,8.27
2022-07-27T19:46:07.066Z,6.43
2022-07-27T19:48:33.774Z,5.77
2022-07-27T19:51:06.409Z,5.83
2022-07-27T19:53:35.443Z,6.47
2022-07-27T19:56:02.258Z,6.00
2022-07-27T19:58:28.840Z,6.63
2022-07-27T20:00:55.851Z,6.27
2022-07-27T20:03:23.216Z,5.60
2022-07-27T20:05:49.952Z,7.33
2022-07-27T20:08:16.815Z,6.00
2022-07-27T20:10:43.613Z,6.10
2022-07-27T20:13:10.653Z,7.13
2022-07-27T20:15:37.486Z,6.97
2022-07-27T20:18:04.293Z,7.00
2022-07-27T20:20:30.857Z,5.97
2022-07-27T20:22:57.524Z,6.10
2022-07-27T20:25:24.495Z,5.87
2022-07-27T20:27:52.110Z,7.40
2022-07-27T20:30:19.977Z,6.60
2022-07-27T20:32:48.294Z,6.23
2022-07-27T20:35:15.175Z,6.47
2022-07-27T20:37:42.234Z,6.30
2022-07-27T20:40:11.508Z,6.60
2022-07-27T20:42:41.826Z,7.50
2022-07-27T20:45:11.614Z,8.00
2022-07-27T20:47:38.836Z,7.43
2022-07-27T20:50:14.945Z,6.80
2022-07-27T20:52:42.450Z,6.97
2022-07-27T20:55:09.855Z,6.07
2022-07-27T20:57:36.552Z,8.07
2022-07-27T21:00:06.465Z,7.70
2022-07-27T21:02:33.233Z,7.40
2022-07-27T21:04:59.893Z,7.33
2022-07-27T21:07:26.641Z,7.63
2022-07-27T21:09:53.215Z,7.17
2022-07-27T21:12:19.734Z,5.50
2022-07-27T21:14:46.221Z,5.97
2022-07-27T21:17:13.484Z,6.50
2022-07-27T21:19:39.946Z,7.50
2022-07-27T21:22:06.875Z,7.30
2022-07-27T21:24:33.362Z,6.57
2022-07-27T21:27:04.650Z,6.77
2022-07-27T21:29:31.757Z,7.30
2022-07-27T21:31:58.909Z,6.80
2022-07-27T21:34:25.411Z,6.97
2022-07-27T21:36:51.974Z,6.23
2022-07-27T21:39:18.699Z,6.10
2022-07-27T21:41:45.864Z,7.40
2022-07-27T21:44:13.072Z,6.77
2022-07-27T21:46:39.786Z,7.00
2022-07-27T21:49:06.492Z,7.60
2022-07-27T21:51:33.294Z,6.93
2022-07-27T21:53:59.864Z,6.33
2022-07-27T21:56:27.745Z,7.00
2022-07-27T21:58:54.240Z,6.50
2022-07-27T22:01:20.932Z,9.40
2022-07-27T22:03:47.579Z,7.00
2022-07-27T22:06:14.214Z,6.93
2022-07-27T22:08:40.800Z,7.30
2022-07-27T22:11:07.340Z,7.60
2022-07-27T22:13:34.408Z,7.33
2022-07-27T22:16:01.287Z,6.70
2022-07-27T22:18:28.833Z,7.37
2022-07-27T22:20:55.937Z,7.07
2022-07-27T22:23:22.765Z,6.60
2022-07-27T22:25:49.607Z,6.70
2022-07-27T22:28:16.303Z,6.30
2022-07-27T22:30:42.916Z,6.80
2022-07-27T22:33:26.572Z,6.60
2022-07-27T22:35:53.193Z,8.07
2022-07-27T22:38:19.901Z,7.00
2022-07-27T22:40:46.401Z,7.37
2022-07-27T22:43:16.158Z,7.00
2022-07-27T22:45:42.879Z,6.60
2022-07-27T22:48:09.390Z,8.10
2022-07-27T22:50:35.916Z,7.63
2022-07-27T22:53:03.019Z,7.23
2022-07-27T22:55:29.647Z,8.07
2022-07-27T22:57:56.174Z,7.70
2022-07-27T23:00:22.728Z,7.83
2022-07-27T23:02:49.319Z,7.23
2022-07-27T23:05:16.080Z,7.43
2022-07-27T23:07:42.764Z,7.80
2022-07-27T23:10:30.777Z,7.13
2022-07-27T23:12:57.562Z,6.60
2022-07-27T23:15:24.055Z,7.03
2022-07-27T23:17:50.609Z,7.20
2022-07-27T23:20:17.592Z,6.17
2022-07-27T23:22:44.595Z,7.70
2022-07-27T23:25:16.091Z,7.30
2022-07-27T23:27:42.903Z,7.47
2022-07-27T23:30:09.995Z,8.00
2022-07-27T23:32:36.514Z,6.70
2022-07-27T23:35:03.569Z,7.07
2022-07-27T23:37:30.163Z,6.90
2022-07-27T23:39:56.677Z,6.73
2022-07-27T23:42:23.293Z,6.63
2022-07-27T23:44:49.793Z,6.80
2022-07-27T23:47:17.136Z,7.03
2022-07-27T23:49:43.608Z,7.27
2022-07-27T23:52:10.185Z,6.87
2022-07-27T23:54:36.669Z,6.50
2022-07-27T23:57:03.209Z,6.30
2022-07-27T23:59:29.758Z,7.30
